createdAt,value
2022-08-17T00:00:34.379Z,16.50
2022-08-17T00:03:08.783Z,16.40
2022-08-17T00:05:41.726Z,16.40
2022-08-17T00:08:10.203Z,16.40
2022-08-17T00:10:39.651Z,16.40
2022-08-17T00:13:09.657Z,16.40
2022-08-17T00:15:37.884Z,16.40
2022-08-17T00:18:58.370Z,16.40
2022-08-17T00:20:55.923Z,16.40
2022-08-17T00:23:24.063Z,16.30
2022-08-17T00:25:54.234Z,16.30
2022-08-17T00:28:23.010Z,16.30
2022-08-17T00:30:53.682Z,16.20
2022-08-17T00:33:25.287Z,16.20
2022-08-17T00:35:54.384Z,16.20
2022-08-17T00:38:23.835Z,16.10
2022-08-17T00:40:59.024Z,16.10
2022-08-17T00:43:31.869Z,16.10
2022-08-17T00:46:01.816Z,16.00
2022-08-17T00:48:30.846Z,16.10
2022-08-17T00:51:04.028Z,16.00
2022-08-17T00:53:34.786Z,16.10
2022-08-17T00:56:08.216Z,16.00
2022-08-17T00:58:37.430Z,16.00
2022-08-17T01:01:07.703Z,16.00
2022-08-17T01:03:37.338Z,16.00
2022-08-17T01:06:07.928Z,16.00
2022-08-17T01:08:38.862Z,15.90
2022-08-17T01:11:10.340Z,15.90
2022-08-17T01:13:41.720Z,15.90
2022-08-17T01:16:17.092Z,15.80
2022-08-17T01:18:46.838Z,15.90
2022-08-17T01:21:21.434Z,15.80
2022-08-17T01:23:50.914Z,15.80
2022-08-17T01:26:19.616Z,15.80
2022-08-17T01:28:53.632Z,15.80
2022-08-17T01:31:25.597Z,15.80
2022-08-17T01:33:53.812Z,15.80
2022-08-17T01:36:22.103Z,15.80
2022-08-17T01:38:51.781Z,15.80
2022-08-17T01:41:22.972Z,15.80
2022-08-17T01:43:55.999Z,15.70
2022-08-17T01:46:27.081Z,15.70
2022-08-17T01:48:56.429Z,15.70
2022-08-17T01:51:26.002Z,15.70
2022-08-17T01:53:59.761Z,15.70
2022-08-17T01:56:29.087Z,15.60
2022-08-17T01:58:57.788Z,15.60
2022-08-17T02:01:28.715Z,15.50
2022-08-17T02:04:00.467Z,15.50
2022-08-17T02:06:31.406Z,15.50
2022-08-17T02:09:03.813Z,15.50
2022-08-17T02:11:34.350Z,15.50
2022-08-17T02:14:04.009Z,15.40
2022-08-17T02:16:37.047Z,15.40
2022-08-17T02:19:08.174Z,15.40
2022-08-17T02:21:36.575Z,15.40
2022-08-17T02:24:07.844Z,15.40
2022-08-17T02:26:35.839Z,15.40
2022-08-17T02:29:05.093Z,15.40
2022-08-17T02:31:33.393Z,15.30
2022-08-17T02:34:04.549Z,15.30
2022-08-17T02:36:35.143Z,15.30
2022-08-17T02:39:04.430Z,15.30
2022-08-17T02:41:34.263Z,15.30
2022-08-17T02:44:02.580Z,15.20
2022-08-17T02:46:32.411Z,15.20
2022-08-17T02:49:00.625Z,15.20
2022-08-17T02:51:28.681Z,15.20
2022-08-17T02:54:40.659Z,15.20
2022-08-17T02:56:46.634Z,15.10
2022-08-17T02:59:14.653Z,15.10
2022-08-17T03:01:42.823Z,15.10
2022-08-17T03:04:11.637Z,15.10
2022-08-17T03:06:39.664Z,15.00
2022-08-17T03:09:07.719Z,15.10
2022-08-17T03:11:35.810Z,15.00
2022-08-17T03:14:05.180Z,15.00
2022-08-17T03:16:33.201Z,15.00
2022-08-17T03:19:02.580Z,14.90
2022-08-17T03:21:30.656Z,14.90
2022-08-17T03:23:58.754Z,14.90
2022-08-17T03:26:29.785Z,14.90
2022-08-17T03:28:59.077Z,14.90
2022-08-17T03:31:28.471Z,14.90
2022-08-17T03:33:56.506Z,14.90
2022-08-17T03:36:24.842Z,14.90
2022-08-17T03:38:52.898Z,14.90
2022-08-17T03:41:23.054Z,14.90
2022-08-17T03:43:51.100Z,14.80
2022-08-17T03:46:36.767Z,14.80
2022-08-17T03:49:26.479Z,14.80
2022-08-17T03:52:13.274Z,14.80
2022-08-17T03:54:59.228Z,14.80
2022-08-17T03:57:28.064Z,14.80
2022-08-17T03:59:56.944Z,14.80
2022-08-17T04:02:27.936Z,14.80
2022-08-17T04:04:58.267Z,14.80
2022-08-17T04:07:28.702Z,14.80
2022-08-17T04:09:58.170Z,14.80
2022-08-17T04:12:30.833Z,14.80
2022-08-17T04:14:59.329Z,14.80
2022-08-17T04:17:29.143Z,14.80
2022-08-17T04:19:59.174Z,14.80
2022-08-17T04:22:31.938Z,14.80
2022-08-17T04:25:03.216Z,14.90
2022-08-17T04:27:31.115Z,14.90
2022-08-17T04:29:59.626Z,14.90
2022-08-17T04:33:03.523Z,15.00
2022-08-17T04:35:21.409Z,15.00
2022-08-17T04:37:49.564Z,15.10
2022-08-17T04:40:35.805Z,15.10
2022-08-17T04:43:05.820Z,15.20
2022-08-17T04:45:34.211Z,15.30
2022-08-17T04:48:02.579Z,15.30
2022-08-17T04:50:31.977Z,15.50
2022-08-17T04:53:00.375Z,15.50
2022-08-17T04:55:29.127Z,15.60
2022-08-17T04:57:57.126Z,15.70
2022-08-17T05:00:26.046Z,15.90
2022-08-17T05:02:56.080Z,16.00
2022-08-17T05:05:26.258Z,16.20
2022-08-17T05:07:57.651Z,16.40
2022-08-17T05:10:27.497Z,16.60
2022-08-17T05:12:59.793Z,16.70
2022-08-17T05:15:29.190Z,16.80
2022-08-17T05:18:01.213Z,16.80
2022-08-17T05:20:30.206Z,16.90
2022-08-17T05:23:01.781Z,17.00
2022-08-17T05:25:34.502Z,17.10
2022-08-17T05:28:06.433Z,17.20
2022-08-17T05:30:36.370Z,17.30
2022-08-17T05:33:07.080Z,17.50
2022-08-17T05:35:38.100Z,17.70
2022-08-17T05:38:08.288Z,17.80
2022-08-17T05:40:37.067Z,17.90
2022-08-17T05:43:07.527Z,18.10
2022-08-17T05:45:55.419Z,18.20
2022-08-17T05:48:35.452Z,18.30
2022-08-17T05:51:24.985Z,18.50
2022-08-17T05:54:02.142Z,18.60
2022-08-17T05:56:49.975Z,18.80
2022-08-17T05:59:30.246Z,18.90
2022-08-17T06:02:06.686Z,19.10
2022-08-17T06:04:48.988Z,19.20
2022-08-17T06:07:22.287Z,19.40
2022-08-17T06:10:01.795Z,19.60
2022-08-17T06:12:44.106Z,19.80
2022-08-17T06:15:26.345Z,19.90
2022-08-17T06:17:57.191Z,20.20
2022-08-17T06:20:28.339Z,20.50
2022-08-17T06:23:05.451Z,20.70
2022-08-17T06:25:40.418Z,21.00
2022-08-17T06:28:14.892Z,21.30
2022-08-17T06:30:59.446Z,21.70
2022-08-17T06:33:34.554Z,22.00
2022-08-17T06:36:15.975Z,22.30
2022-08-17T06:38:53.288Z,22.60
2022-08-17T06:41:27.547Z,22.80
2022-08-17T06:44:07.568Z,23.00
2022-08-17T06:46:39.475Z,23.20
2022-08-17T06:49:19.859Z,23.30
2022-08-17T06:51:52.805Z,23.50
2022-08-17T06:54:27.300Z,23.70
2022-08-17T06:57:01.782Z,24.00
2022-08-17T06:59:54.867Z,24.10
2022-08-17T07:02:52.487Z,24.30
2022-08-17T07:05:22.462Z,24.40
2022-08-17T07:08:05.290Z,24.60
2022-08-17T07:10:42.761Z,24.70
2022-08-17T07:13:32.424Z,24.90
2022-08-17T07:16:09.087Z,25.00
2022-08-17T07:18:37.487Z,25.20
2022-08-17T07:21:17.953Z,25.40
2022-08-17T07:24:26.296Z,25.50
2022-08-17T07:27:13.566Z,25.80
2022-08-17T07:29:46.907Z,26.10
2022-08-17T07:32:18.693Z,26.20
2022-08-17T07:35:21.134Z,26.40
2022-08-17T07:37:54.105Z,26.50
2022-08-17T07:40:27.592Z,26.60
2022-08-17T07:43:21.803Z,26.80
2022-08-17T07:46:36.493Z,27.10
2022-08-17T07:49:34.711Z,27.30
2022-08-17T07:52:23.896Z,27.50
2022-08-17T07:54:56.156Z,27.60
2022-08-17T07:57:36.623Z,27.80
2022-08-17T08:00:16.460Z,27.80
2022-08-17T08:02:58.896Z,27.90
2022-08-17T08:05:48.763Z,28.10
2022-08-17T08:08:25.437Z,28.20
2022-08-17T08:11:01.613Z,28.50
2022-08-17T08:13:31.742Z,28.60
2022-08-17T08:16:25.649Z,28.70
2022-08-17T08:18:58.277Z,28.70
2022-08-17T08:21:37.287Z,28.90
2022-08-17T08:24:22.033Z,29.10
2022-08-17T08:26:59.679Z,29.20
2022-08-17T08:29:37.962Z,29.20
2022-08-17T08:32:14.507Z,29.40
2022-08-17T08:35:02.703Z,29.60
2022-08-17T08:37:51.012Z,29.80
2022-08-17T08:40:36.648Z,29.90
2022-08-17T08:43:17.060Z,30.10
2022-08-17T08:45:56.747Z,30.00
2022-08-17T08:48:56.396Z,30.00
2022-08-17T08:51:39.746Z,30.20
2022-08-17T08:54:26.458Z,30.50
2022-08-17T08:57:26.458Z,30.60
2022-08-17T09:00:03.085Z,30.80
2022-08-17T09:02:52.909Z,30.80
2022-08-17T09:05:34.979Z,31.00
2022-08-17T09:08:18.104Z,30.90
2022-08-17T09:10:56.838Z,30.90
2022-08-17T09:13:34.944Z,31.00
2022-08-17T09:16:10.402Z,31.10
2022-08-17T09:18:59.956Z,31.30
2022-08-17T09:21:38.195Z,31.30
2022-08-17T09:24:24.370Z,31.30
2022-08-17T09:26:59.510Z,31.20
2022-08-17T09:29:30.409Z,31.20
2022-08-17T09:32:01.793Z,31.30
2022-08-17T09:34:36.079Z,31.20
2022-08-17T09:37:12.808Z,31.10
2022-08-17T09:39:46.996Z,31.10
2022-08-17T09:42:22.798Z,31.10
2022-08-17T09:44:59.370Z,31.10
2022-08-17T09:47:32.717Z,31.20
2022-08-17T09:50:07.143Z,31.40
2022-08-17T09:52:36.368Z,31.50
2022-08-17T09:55:07.402Z,31.40
2022-08-17T09:57:53.431Z,31.30
2022-08-17T10:00:27.743Z,31.20
2022-08-17T10:03:17.194Z,31.20
2022-08-17T10:05:56.283Z,31.10
2022-08-17T10:08:32.228Z,31.20
2022-08-17T10:11:15.179Z,31.20
2022-08-17T10:13:53.238Z,31.30
2022-08-17T10:16:30.609Z,31.30
2022-08-17T10:19:09.928Z,31.30
2022-08-17T10:22:01.527Z,31.50
2022-08-17T10:25:21.702Z,31.50
2022-08-17T10:27:56.721Z,31.60
2022-08-17T10:30:28.131Z,31.60
2022-08-17T10:32:59.502Z,31.50
2022-08-17T10:35:36.116Z,31.40
2022-08-17T10:38:31.958Z,31.30
2022-08-17T10:41:06.621Z,31.30
2022-08-17T10:44:38.381Z,31.30
2022-08-17T10:46:59.329Z,31.10
2022-08-17T10:49:32.770Z,31.00
2022-08-17T10:52:02.782Z,30.90
2022-08-17T10:54:48.347Z,31.00
2022-08-17T10:57:39.072Z,31.10
2022-08-17T11:00:16.109Z,31.20
2022-08-17T11:02:50.004Z,31.10
2022-08-17T11:05:29.389Z,31.00
2022-08-17T11:08:30.797Z,30.80
2022-08-17T11:11:41.404Z,30.50
2022-08-17T11:14:28.346Z,30.50
2022-08-17T11:17:14.722Z,30.50
2022-08-17T11:20:21.178Z,30.50
2022-08-17T11:23:07.661Z,30.40
2022-08-17T11:25:39.472Z,30.20
2022-08-17T11:28:14.829Z,30.20
2022-08-17T11:30:49.137Z,30.10
2022-08-17T11:33:54.662Z,30.10
2022-08-17T11:37:01.861Z,30.10
2022-08-17T11:40:06.615Z,30.20
2022-08-17T11:42:47.642Z,30.20
2022-08-17T11:45:35.087Z,30.30
2022-08-17T11:48:31.789Z,30.20
2022-08-17T11:51:28.559Z,30.20
2022-08-17T11:54:31.605Z,30.30
2022-08-17T11:56:54.821Z,30.30
2022-08-17T11:59:55.299Z,30.40
2022-08-17T12:02:38.891Z,30.50
2022-08-17T12:05:32.407Z,30.50
2022-08-17T12:08:20.131Z,30.50
2022-08-17T12:11:01.740Z,30.50
2022-08-17T12:13:38.528Z,30.40
2022-08-17T12:16:10.048Z,30.50
2022-08-17T12:18:42.450Z,30.60
2022-08-17T12:21:38.175Z,30.80
2022-08-17T12:24:20.208Z,30.90
2022-08-17T12:26:56.357Z,31.00
2022-08-17T12:29:35.902Z,31.10
2022-08-17T12:32:08.417Z,31.10
2022-08-17T12:34:40.644Z,30.90
2022-08-17T12:37:16.417Z,30.80
2022-08-17T12:39:52.578Z,30.80
2022-08-17T12:42:29.967Z,30.80
2022-08-17T12:44:59.039Z,31.00
2022-08-17T12:47:29.513Z,31.10
2022-08-17T12:50:08.371Z,31.00
2022-08-17T12:53:01.622Z,31.00
2022-08-17T12:55:36.818Z,30.90
2022-08-17T12:58:12.228Z,30.80
2022-08-17T13:00:48.624Z,30.80
2022-08-17T13:03:20.300Z,30.90
2022-08-17T13:05:57.642Z,31.00
2022-08-17T13:08:30.935Z,31.00
2022-08-17T13:11:01.462Z,31.00
2022-08-17T13:13:33.166Z,31.10
2022-08-17T13:16:03.389Z,31.20
2022-08-17T13:18:43.740Z,31.20
2022-08-17T13:21:26.985Z,31.20
2022-08-17T13:24:00.189Z,31.30
2022-08-17T13:26:33.935Z,31.40
2022-08-17T13:29:06.807Z,31.40
2022-08-17T13:31:47.466Z,31.60
2022-08-17T13:34:34.661Z,31.80
2022-08-17T13:37:30.291Z,31.90
2022-08-17T13:40:01.208Z,32.20
2022-08-17T13:42:52.178Z,32.30
2022-08-17T13:45:53.300Z,32.10
2022-08-17T13:48:25.785Z,32.10
2022-08-17T13:51:16.826Z,32.00
2022-08-17T13:53:55.811Z,32.10
2022-08-17T13:56:41.823Z,32.10
2022-08-17T13:59:13.745Z,32.00
2022-08-17T14:01:48.514Z,32.00
2022-08-17T14:04:23.742Z,31.90
2022-08-17T14:06:54.650Z,31.80
2022-08-17T14:09:26.559Z,32.00
2022-08-17T14:11:56.625Z,31.90
2022-08-17T14:14:25.311Z,32.00
2022-08-17T14:16:55.437Z,32.10
2022-08-17T14:19:23.516Z,32.30
2022-08-17T14:21:56.466Z,32.30
2022-08-17T14:24:26.453Z,32.30
2022-08-17T14:26:55.024Z,32.40
2022-08-17T14:29:25.028Z,32.50
2022-08-17T14:31:54.824Z,32.50
2022-08-17T14:34:23.418Z,32.40
2022-08-17T14:36:51.610Z,32.30
2022-08-17T14:39:20.830Z,32.20
2022-08-17T14:41:49.214Z,32.10
2022-08-17T14:44:17.717Z,32.10
2022-08-17T14:46:46.394Z,32.10
2022-08-17T14:49:16.257Z,32.00
2022-08-17T14:51:44.684Z,31.90
2022-08-17T14:54:33.610Z,31.80
2022-08-17T14:57:22.819Z,31.70
2022-08-17T14:59:54.714Z,31.50
2022-08-17T15:02:30.059Z,31.30
2022-08-17T15:05:05.189Z,31.20
2022-08-17T15:07:33.209Z,31.20
2022-08-17T15:10:02.321Z,31.20
2022-08-17T15:12:33.553Z,31.40
2022-08-17T15:15:04.872Z,31.40
2022-08-17T15:17:44.757Z,31.50
2022-08-17T15:20:18.746Z,31.50
2022-08-17T15:22:49.804Z,31.40
2022-08-17T15:25:20.101Z,31.30
2022-08-17T15:27:48.152Z,31.30
2022-08-17T15:30:16.738Z,31.30
2022-08-17T15:32:50.860Z,31.20
2022-08-17T15:35:27.784Z,31.20
2022-08-17T15:37:58.321Z,31.10
2022-08-17T15:40:26.774Z,31.00
2022-08-17T15:42:55.139Z,30.90
2022-08-17T15:45:26.727Z,30.90
2022-08-17T15:47:55.188Z,30.80
2022-08-17T15:50:24.634Z,30.80
2022-08-17T15:52:57.968Z,30.60
2022-08-17T15:55:28.039Z,30.40
2022-08-17T15:57:56.070Z,30.40
2022-08-17T16:00:24.757Z,30.30
2022-08-17T16:03:46.107Z,30.30
2022-08-17T16:05:44.191Z,30.40
2022-08-17T16:08:20.044Z,30.30
2022-08-17T16:10:49.675Z,30.20
2022-08-17T16:13:18.475Z,30.20
2022-08-17T16:15:53.033Z,30.10
2022-08-17T16:18:28.369Z,30.10
2022-08-17T16:20:57.821Z,30.00
2022-08-17T16:23:26.060Z,30.00
2022-08-17T16:25:54.594Z,29.90
2022-08-17T16:28:35.989Z,29.70
2022-08-17T16:31:08.236Z,29.60
2022-08-17T16:33:39.485Z,29.50
2022-08-17T16:36:09.478Z,29.40
2022-08-17T16:38:38.719Z,29.50
2022-08-17T16:41:07.335Z,29.50
2022-08-17T16:43:36.056Z,29.50
2022-08-17T16:46:04.285Z,29.60
2022-08-17T16:48:32.449Z,29.80
2022-08-17T16:51:04.220Z,29.90
2022-08-17T16:53:33.913Z,29.90
2022-08-17T16:56:02.116Z,30.00
2022-08-17T16:58:30.326Z,29.90
2022-08-17T17:00:59.917Z,29.90
2022-08-17T17:03:30.361Z,29.90
2022-08-17T17:06:08.873Z,29.80
2022-08-17T17:08:44.681Z,29.80
2022-08-17T17:11:16.101Z,29.70
2022-08-17T17:13:48.556Z,29.60
2022-08-17T17:16:29.837Z,29.50
2022-08-17T17:19:09.174Z,29.30
2022-08-17T17:21:44.790Z,29.10
2022-08-17T17:24:19.822Z,29.00
2022-08-17T17:27:13.495Z,28.80
2022-08-17T17:29:55.431Z,28.70
2022-08-17T17:32:37.929Z,28.40
2022-08-17T17:35:12.450Z,28.30
2022-08-17T17:37:43.992Z,28.00
2022-08-17T17:40:23.184Z,27.90
2022-08-17T17:42:55.289Z,27.60
2022-08-17T17:45:26.905Z,27.50
2022-08-17T17:47:54.959Z,27.30
2022-08-17T17:50:29.966Z,27.20
2022-08-17T17:53:05.033Z,27.00
2022-08-17T17:55:43.357Z,26.90
2022-08-17T17:58:27.854Z,26.70
2022-08-17T18:01:23.655Z,26.60
2022-08-17T18:04:08.312Z,26.50
2022-08-17T18:07:00.334Z,26.30
2022-08-17T18:09:43.160Z,26.20
2022-08-17T18:12:30.607Z,26.10
2022-08-17T18:15:11.733Z,25.90
2022-08-17T18:17:39.583Z,25.80
2022-08-17T18:20:08.149Z,25.60
2022-08-17T18:22:36.031Z,25.50
2022-08-17T18:25:30.070Z,25.30
2022-08-17T18:27:59.475Z,25.20
2022-08-17T18:30:29.927Z,25.00
2022-08-17T18:33:23.310Z,24.80
2022-08-17T18:35:58.896Z,24.60
2022-08-17T18:38:33.802Z,24.50
2022-08-17T18:41:05.708Z,24.40
2022-08-17T18:43:53.069Z,24.20
2022-08-17T18:46:29.505Z,24.10
2022-08-17T18:49:02.064Z,23.90
2022-08-17T18:51:41.373Z,23.70
2022-08-17T18:54:18.249Z,23.60
2022-08-17T18:56:52.062Z,23.40
2022-08-17T18:59:33.923Z,23.30
2022-08-17T19:02:26.372Z,23.20
2022-08-17T19:05:10.189Z,23.10
2022-08-17T19:07:40.444Z,23.00
2022-08-17T19:10:17.402Z,22.80
2022-08-17T19:12:49.713Z,22.70
2022-08-17T19:15:26.991Z,22.50
2022-08-17T19:18:00.384Z,22.50
2022-08-17T19:20:34.250Z,22.40
2022-08-17T19:23:12.039Z,22.40
2022-08-17T19:25:45.484Z,22.30
2022-08-17T19:28:22.595Z,22.20
2022-08-17T19:30:56.860Z,22.10
2022-08-17T19:33:25.873Z,22.10
2022-08-17T19:36:04.073Z,22.00
2022-08-17T19:38:44.941Z,22.00
2022-08-17T19:41:21.369Z,21.90
2022-08-17T19:44:13.261Z,21.80
2022-08-17T19:46:50.714Z,21.70
2022-08-17T19:49:41.227Z,21.70
2022-08-17T19:52:22.616Z,21.60
2022-08-17T19:54:56.542Z,21.50
2022-08-17T19:57:35.667Z,21.50
2022-08-17T20:00:10.573Z,21.40
2022-08-17T20:02:47.640Z,21.30
2022-08-17T20:05:21.406Z,21.30
2022-08-17T20:07:55.177Z,21.20
2022-08-17T20:10:32.247Z,21.20
2022-08-17T20:13:07.550Z,21.10
2022-08-17T20:15:39.891Z,21.10
2022-08-17T20:18:15.391Z,20.90
2022-08-17T20:20:54.849Z,21.00
2022-08-17T20:23:34.543Z,20.90
2022-08-17T20:26:10.713Z,20.90
2022-08-17T20:28:40.025Z,20.90
2022-08-17T20:31:41.374Z,20.90
2022-08-17T20:34:37.027Z,20.80
2022-08-17T20:37:09.092Z,20.80
2022-08-17T20:39:40.723Z,20.80
2022-08-17T20:42:29.919Z,20.70
2022-08-17T20:45:02.337Z,20.70
2022-08-17T20:47:33.466Z,20.70
2022-08-17T20:50:06.932Z,20.70
2022-08-17T20:52:51.500Z,20.70
2022-08-17T20:55:52.917Z,20.70
2022-08-17T20:58:47.796Z,20.70
2022-08-17T21:01:35.090Z,20.70
2022-08-17T21:04:09.177Z,20.70
2022-08-17T21:07:17.552Z,20.60
2022-08-17T21:09:47.319Z,20.70
2022-08-17T21:12:42.749Z,20.70
2022-08-17T21:15:28.621Z,20.70
2022-08-17T21:18:06.751Z,20.60
2022-08-17T21:20:42.361Z,20.70
2022-08-17T21:23:30.385Z,20.70
2022-08-17T21:26:28.099Z,20.70
2022-08-17T21:29:30.101Z,20.70
2022-08-17T21:32:19.230Z,20.70
2022-08-17T21:35:28.559Z,20.60
2022-08-17T21:38:03.805Z,20.70
2022-08-17T21:40:34.133Z,20.70
2022-08-17T21:43:17.937Z,20.70
2022-08-17T21:45:56.771Z,20.70
2022-08-17T21:48:27.444Z,20.70
2022-08-17T21:51:03.810Z,20.70
2022-08-17T21:53:40.347Z,20.70
2022-08-17T21:56:10.587Z,20.80
2022-08-17T21:58:46.630Z,20.90
2022-08-17T22:01:23.500Z,21.00
2022-08-17T22:04:05.883Z,21.10
2022-08-17T22:06:39.801Z,21.20
2022-08-17T22:09:17.618Z,21.20
2022-08-17T22:11:52.677Z,21.20
2022-08-17T22:14:24.495Z,21.30
2022-08-17T22:17:08.052Z,21.20
2022-08-17T22:19:37.036Z,21.30
2022-08-17T22:22:06.836Z,21.30
2022-08-17T22:24:34.001Z,21.30
2022-08-17T22:27:07.394Z,21.40
2022-08-17T22:29:57.448Z,21.40
2022-08-17T22:32:35.587Z,21.40
2022-08-17T22:35:28.565Z,21.50
2022-08-17T22:37:57.780Z,21.60
2022-08-17T22:40:30.487Z,21.60
2022-08-17T22:42:59.921Z,21.60
2022-08-17T22:45:31.345Z,21.70
2022-08-17T22:48:02.182Z,21.70
2022-08-17T22:50:33.052Z,21.70
2022-08-17T22:53:20.893Z,21.70
2022-08-17T22:56:12.357Z,21.70
2022-08-17T22:59:02.922Z,21.60
2022-08-17T23:01:35.531Z,21.60
2022-08-17T23:04:06.525Z,21.50
2022-08-17T23:06:36.964Z,21.50
2022-08-17T23:09:06.622Z,21.50
2022-08-17T23:11:48.771Z,21.50
2022-08-17T23:14:19.831Z,21.50
2022-08-17T23:16:50.457Z,21.50
2022-08-17T23:19:21.125Z,21.60
2022-08-17T23:21:55.440Z,21.60
2022-08-17T23:24:26.423Z,21.70
2022-08-17T23:26:57.309Z,21.70
2022-08-17T23:29:25.818Z,21.70
2022-08-17T23:31:55.415Z,21.80
2022-08-17T23:34:24.258Z,21.70
2022-08-17T23:36:53.341Z,21.70
2022-08-17T23:39:27.519Z,21.60
2022-08-17T23:41:57.465Z,21.50
2022-08-17T23:44:26.054Z,21.50
2022-08-17T23:46:56.157Z,21.40
2022-08-17T23:49:25.251Z,21.30
2022-08-17T23:51:54.796Z,21.30
2022-08-17T23:54:30.533Z,21.20
2022-08-17T23:56:58.634Z,21.10
2022-08-17T23:59:27.613Z,21.10
